Time;durP1;ratioP1;P1;durP2;ratioP2;P2;SDS_P1;SDS_P2;PMS_P1;PMS_P2;Temp;Humidity;BMP_temperature;BMP_pressure;BME280_temperature;BME280_humidity;BME280_pressure;Samples;Min_cycle;Max_cycle;Signal;HPM_P1;HPM_P2
2022/03/17 00:00:22;;;;;;;28.85;19.88;;;12.50;74.70;;;;;;5053878;28;20048;-77
2022/03/17 00:02:48;;;;;;;23.77;18.60;;;12.50;74.90;;;;;;5053678;28;20126;-77
2022/03/17 00:05:14;;;;;;;24.30;19.00;;;12.50;75.00;;;;;;5053969;28;20045;-77
2022/03/17 00:07:41;;;;;;;24.92;18.98;;;12.50;75.10;;;;;;5035859;28;20043;-77
2022/03/17 00:10:10;;;;;;;25.73;18.92;;;12.50;75.20;;;;;;5053757;28;20090;-77
2022/03/17 00:12:36;;;;;;;26.95;19.02;;;12.50;75.10;;;;;;5053641;28;20037;-77
2022/03/17 00:15:04;;;;;;;26.02;19.15;;;12.50;75.30;;;;;;5054016;28;20041;-77
2022/03/17 00:17:30;;;;;;;24.83;18.90;;;12.50;75.40;;;;;;5052319;28;20086;-77
2022/03/17 00:19:56;;;;;;;29.02;20.08;;;12.40;75.30;;;;;;5052177;28;20134;-77
2022/03/17 00:22:21;;;;;;;29.95;19.85;;;12.50;75.60;;;;;;5053626;28;20083;-77
2022/03/17 00:24:47;;;;;;;24.60;18.88;;;12.50;75.80;;;;;;5052743;28;20115;-77
2022/03/17 00:27:13;;;;;;;26.40;19.48;;;12.50;76.40;;;;;;5036082;28;20029;-77
2022/03/17 00:29:39;;;;;;;25.67;19.55;;;12.50;76.10;;;;;;5052542;28;20033;-77
2022/03/17 00:32:06;;;;;;;27.98;20.25;;;12.50;76.00;;;;;;5035907;28;20123;-77
2022/03/17 00:34:33;;;;;;;28.05;19.30;;;12.40;76.00;;;;;;5035671;28;20124;-77
2022/03/17 00:36:59;;;;;;;30.00;20.80;;;12.40;76.20;;;;;;5053303;28;20029;-77
2022/03/17 00:39:25;;;;;;;28.65;20.30;;;12.50;76.20;;;;;;5052057;28;20362;-77
2022/03/17 00:41:51;;;;;;;26.50;20.08;;;12.40;76.90;;;;;;5052508;28;20454;-77
2022/03/17 00:44:17;;;;;;;26.70;19.73;;;12.40;76.20;;;;;;5051955;28;20032;-77
2022/03/17 00:46:42;;;;;;;29.10;19.85;;;12.40;76.40;;;;;;5051930;28;20025;-77
2022/03/17 00:49:08;;;;;;;29.15;21.20;;;12.40;76.50;;;;;;5053391;28;20048;-77
2022/03/17 00:51:34;;;;;;;27.83;21.23;;;12.40;76.70;;;;;;5033892;28;20381;-77
2022/03/17 00:54:00;;;;;;;27.90;22.15;;;12.40;76.90;;;;;;5051949;28;20025;-77
2022/03/17 00:56:26;;;;;;;30.52;21.13;;;12.40;76.90;;;;;;5051678;28;20032;-77
2022/03/17 00:58:52;;;;;;;29.70;21.88;;;12.40;77.20;;;;;;5053171;28;20417;-77
2022/03/17 01:01:18;;;;;;;26.75;20.48;;;12.30;77.20;;;;;;5051748;28;20080;-77
2022/03/17 01:03:45;;;;;;;31.13;21.55;;;12.30;77.20;;;;;;5053515;28;20421;-77
2022/03/17 01:06:11;;;;;;;29.38;21.60;;;12.30;77.30;;;;;;5051831;28;20087;-77
2022/03/17 01:08:37;;;;;;;29.92;22.05;;;12.30;77.20;;;;;;5051820;28;20040;-77
2022/03/17 01:11:04;;;;;;;27.58;20.65;;;12.30;77.50;;;;;;5035157;28;20029;-77
2022/03/17 01:13:30;;;;;;;26.73;20.02;;;12.30;77.60;;;;;;5052748;28;20060;-77
2022/03/17 01:15:56;;;;;;;29.30;20.38;;;12.20;77.40;;;;;;5052858;28;20029;-77
2022/03/17 01:18:22;;;;;;;27.40;19.73;;;12.20;77.60;;;;;;5051541;28;20033;-77
2022/03/17 01:20:48;;;;;;;29.10;21.15;;;12.20;77.60;;;;;;5051885;28;20033;-78
2022/03/17 01:23:14;;;;;;;30.20;20.77;;;12.20;77.80;;;;;;5051782;28;20107;-77
2022/03/17 01:25:40;;;;;;;29.23;20.52;;;12.20;78.30;;;;;;5034895;28;20474;-77
2022/03/17 01:28:05;;;;;;;24.00;18.17;;;12.20;77.80;;;;;;5051480;28;20033;-77
2022/03/17 01:30:31;;;;;;;30.42;20.33;;;12.10;77.80;;;;;;5051441;28;20037;-77
2022/03/17 01:32:57;;;;;;;27.40;18.33;;;12.20;78.20;;;;;;5051437;28;20108;-77
2022/03/17 01:35:22;;;;;;;25.13;18.90;;;12.20;78.00;;;;;;5036571;28;20036;-78
2022/03/17 01:37:48;;;;;;;29.63;20.92;;;12.20;78.40;;;;;;5055390;28;20040;-77
2022/03/17 01:40:14;;;;;;;25.30;19.10;;;12.20;78.60;;;;;;5038614;28;20473;-77
2022/03/17 01:42:40;;;;;;;27.90;18.95;;;12.20;78.60;;;;;;5055175;28;20029;-77
2022/03/17 01:45:07;;;;;;;25.70;18.67;;;12.20;78.60;;;;;;5055162;28;20036;-77
2022/03/17 01:47:33;;;;;;;26.15;18.35;;;12.20;79.00;;;;;;5056235;28;20045;-78
2022/03/17 01:50:00;;;;;;;27.90;19.38;;;12.20;79.10;;;;;;5056501;28;20021;-77
2022/03/17 01:52:27;;;;;;;28.58;19.55;;;12.40;79.20;;;;;;5056046;28;20028;-77
2022/03/17 01:54:53;;;;;;;26.05;17.90;;;12.30;79.20;;;;;;5056055;28;20029;-77
2022/03/17 01:57:20;;;;;;;25.83;19.27;;;12.30;79.20;;;;;;5056221;28;20400;-78
2022/03/17 01:59:47;;;;;;;26.38;18.88;;;12.30;79.40;;;;;;5054958;28;20064;-77
2022/03/17 02:02:15;;;;;;;26.75;19.08;;;12.30;79.40;;;;;;5054741;28;20544;-78
2022/03/17 02:04:41;;;;;;;26.83;19.45;;;12.40;79.50;;;;;;5056023;28;20449;-78
2022/03/17 02:07:07;;;;;;;27.23;19.40;;;12.30;79.40;;;;;;5055962;28;20488;-78
2022/03/17 02:09:34;;;;;;;28.33;18.95;;;12.40;79.50;;;;;;5054568;28;20469;-77
2022/03/17 02:14:50;;;;;;;28.73;18.60;;;12.40;79.50;;;;;;5041004;28;20044;-77
2022/03/17 02:17:17;;;;;;;23.75;18.55;;;12.40;79.50;;;;;;5054746;28;20380;-77
2022/03/17 02:19:43;;;;;;;26.90;18.55;;;12.40;79.60;;;;;;5054493;28;20150;-77
2022/03/17 02:22:15;;;;;;;26.65;17.70;;;12.40;79.70;;;;;;5053023;28;20067;-77
2022/03/17 02:27:30;;;;;;;23.75;18.27;;;12.40;79.80;;;;;;5035817;28;20099;-78
2022/03/17 02:29:56;;;;;;;28.00;18.60;;;12.40;80.00;;;;;;5035967;28;20049;-77
2022/03/17 02:32:21;;;;;;;27.42;19.02;;;12.40;80.10;;;;;;5035393;28;20026;-77
2022/03/17 02:34:47;;;;;;;28.90;19.02;;;12.50;80.30;;;;;;5035411;28;20033;-77
2022/03/17 02:37:15;;;;;;;27.20;18.95;;;12.40;80.50;;;;;;5033944;28;20018;-78
2022/03/17 02:39:42;;;;;;;31.00;20.10;;;12.40;80.70;;;;;;5035553;28;20032;-77
2022/03/17 02:42:10;;;;;;;28.55;20.60;;;12.40;80.90;;;;;;5034197;28;20021;-78
2022/03/17 02:44:36;;;;;;;28.70;20.02;;;12.40;81.20;;;;;;5034949;28;20377;-77
2022/03/17 02:47:03;;;;;;;25.42;17.20;;;12.50;81.40;;;;;;5034622;28;20025;-77
2022/03/17 02:49:28;;;;;;;29.30;19.33;;;12.50;81.40;;;;;;5033898;28;20448;-77
2022/03/17 02:51:54;;;;;;;31.67;20.77;;;12.40;81.30;;;;;;5033867;28;20022;-77
2022/03/17 02:54:20;;;;;;;27.10;19.42;;;12.40;81.50;;;;;;5034910;28;20060;-77
2022/03/17 02:56:45;;;;;;;27.27;20.67;;;12.50;81.50;;;;;;5034962;28;20032;-77
2022/03/17 02:59:11;;;;;;;33.92;20.30;;;12.40;81.90;;;;;;5038021;28;20067;-77
2022/03/17 03:01:37;;;;;;;30.02;20.73;;;12.40;81.90;;;;;;5053193;28;20094;-77
2022/03/17 03:04:02;;;;;;;28.08;19.98;;;12.50;82.00;;;;;;5036956;28;20068;-77
2022/03/17 03:06:28;;;;;;;24.63;19.42;;;12.40;82.10;;;;;;5054530;28;20120;-78
2022/03/17 03:08:54;;;;;;;27.05;19.27;;;12.40;82.20;;;;;;5053364;28;20033;-84
2022/03/17 03:11:19;;;;;;;31.48;21.05;;;12.40;82.80;;;;;;5052643;28;20876;-77
2022/03/17 03:13:45;;;;;;;31.00;20.63;;;12.40;83.00;;;;;;5053882;28;20716;-78
2022/03/17 03:16:13;;;;;;;30.85;19.95;;;12.40;83.20;;;;;;5052792;28;20432;-77
2022/03/17 03:18:39;;;;;;;31.50;22.48;;;12.40;83.60;;;;;;5019645;28;20534;-77
2022/03/17 03:21:07;;;;;;;28.27;20.35;;;12.40;85.50;;;;;;5036653;28;20428;-77
2022/03/17 03:23:33;;;;;;;35.20;23.60;;;12.30;85.70;;;;;;5054440;28;20033;-77
2022/03/17 03:25:59;;;;;;;32.60;22.27;;;12.30;87.40;;;;;;5054421;28;20159;-79
2022/03/17 03:28:25;;;;;;;36.38;23.88;;;12.20;88.80;;;;;;5036469;28;20067;-77
2022/03/17 03:30:50;;;;;;;32.88;22.55;;;12.20;90.00;;;;;;5053819;28;20044;-77
2022/03/17 03:33:16;;;;;;;33.10;23.02;;;12.00;90.60;;;;;;5036636;28;20030;-77
2022/03/17 03:38:26;;;;;;;38.03;24.48;;;12.00;91.50;;;;;;5054646;28;20044;-77
2022/03/17 03:40:52;;;;;;;38.03;24.88;;;11.90;92.30;;;;;;5054317;28;20029;-77
2022/03/17 03:43:18;;;;;;;40.58;27.02;;;11.90;92.70;;;;;;5053079;28;20599;-77
2022/03/17 03:45:44;;;;;;;35.65;24.33;;;11.80;93.80;;;;;;5036245;28;20060;-77
2022/03/17 03:48:10;;;;;;;40.80;25.30;;;11.80;94.10;;;;;;5051602;28;20075;-77
2022/03/17 03:50:37;;;;;;;35.25;22.00;;;11.70;95.20;;;;;;5049446;28;20033;-76
2022/03/17 03:53:03;;;;;;;30.40;21.40;;;11.70;96.10;;;;;;5032611;28;20124;-75
2022/03/17 03:55:29;;;;;;;28.43;19.00;;;11.60;96.90;;;;;;5032838;28;20026;-80
2022/03/17 03:57:55;;;;;;;24.63;18.13;;;11.60;97.30;;;;;;5032400;28;20021;-79
2022/03/17 04:00:26;;;;;;;24.87;16.00;;;11.60;97.80;;;;;;5018886;28;20058;-79
2022/03/17 04:02:52;;;;;;;20.33;13.93;;;11.40;98.20;;;;;;5032849;28;20390;-80
2022/03/17 04:05:20;;;;;;;14.97;10.87;;;11.40;98.20;;;;;;5033629;28;20033;-77
2022/03/17 04:07:46;;;;;;;13.47;9.50;;;11.30;97.90;;;;;;5016428;28;20021;-79
2022/03/17 04:10:12;;;;;;;13.10;8.73;;;11.20;97.70;;;;;;5032672;28;20091;-77
2022/03/17 04:12:37;;;;;;;11.07;6.73;;;11.10;97.60;;;;;;5033616;28;20085;-79
2022/03/17 04:15:04;;;;;;;7.63;4.13;;;11.00;97.20;;;;;;5016040;28;20025;-79
2022/03/17 04:17:29;;;;;;;8.33;3.63;;;10.90;96.70;;;;;;5032377;28;20029;-76
2022/03/17 04:19:55;;;;;;;7.53;3.67;;;10.80;96.70;;;;;;5032511;28;20533;-78
2022/03/17 04:22:21;;;;;;;6.60;4.07;;;10.70;96.70;;;;;;5016009;28;20026;-80
2022/03/17 04:24:47;;;;;;;11.33;4.00;;;10.60;96.70;;;;;;5033618;28;20032;-79
2022/03/17 04:27:12;;;;;;;8.17;3.83;;;10.60;96.80;;;;;;5032623;28;20029;-79
2022/03/17 04:29:38;;;;;;;8.83;3.80;;;10.50;96.80;;;;;;5032745;28;20464;-79
2022/03/17 04:32:04;;;;;;;6.17;3.47;;;10.50;96.90;;;;;;5015669;28;20029;-79
2022/03/17 04:34:29;;;;;;;6.97;3.70;;;10.40;96.90;;;;;;5015736;28;20032;-76
2022/03/17 04:36:55;;;;;;;6.23;3.47;;;10.40;96.80;;;;;;5015757;28;20049;-77
2022/03/17 04:39:21;;;;;;;6.00;2.93;;;10.40;96.90;;;;;;5015751;28;20393;-77
2022/03/17 04:41:48;;;;;;;7.60;3.10;;;10.30;96.80;;;;;;5015513;28;20030;-78
2022/03/17 04:44:14;;;;;;;8.27;3.20;;;10.30;96.80;;;;;;5015796;28;20030;-80
2022/03/17 04:46:40;;;;;;;6.60;2.83;;;10.30;96.70;;;;;;5016077;28;20540;-79
2022/03/17 04:49:06;;;;;;;6.67;3.43;;;10.20;96.60;;;;;;5015673;28;20028;-77
2022/03/17 04:51:32;;;;;;;6.90;3.50;;;10.20;96.60;;;;;;5032058;28;20061;-77
2022/03/17 04:53:59;;;;;;;7.63;4.03;;;10.20;96.70;;;;;;5033225;28;20113;-77
2022/03/17 04:56:25;;;;;;;10.20;4.47;;;10.10;96.80;;;;;;5033183;28;20022;-80
2022/03/17 04:58:52;;;;;;;8.83;4.33;;;10.10;96.90;;;;;;5015323;28;20028;-80
2022/03/17 05:01:18;;;;;;;9.67;4.67;;;10.00;96.80;;;;;;5015308;28;20049;-77
2022/03/17 05:03:44;;;;;;;9.33;4.30;;;10.00;97.00;;;;;;5031783;28;20034;-78
2022/03/17 05:06:12;;;;;;;13.23;5.93;;;10.00;96.60;;;;;;5031377;28;20025;-78
2022/03/17 05:08:38;;;;;;;9.37;5.67;;;10.00;96.50;;;;;;5015694;28;20025;-77
2022/03/17 05:11:06;;;;;;;11.60;6.13;;;10.00;96.50;;;;;;5018241;28;20029;-77
2022/03/17 05:13:32;;;;;;;9.60;5.47;;;9.90;96.40;;;;;;5035637;28;20076;-75
2022/03/17 05:15:59;;;;;;;13.47;6.53;;;9.90;96.40;;;;;;5035939;28;20489;-76
2022/03/17 05:18:25;;;;;;;10.27;6.20;;;10.00;96.30;;;;;;5035649;28;20029;-76
2022/03/17 05:20:50;;;;;;;12.73;7.43;;;9.90;96.30;;;;;;5049939;28;20511;-76
2022/03/17 05:23:18;;;;;;;14.83;7.83;;;9.80;96.20;;;;;;5055642;28;20028;-77
2022/03/17 05:25:45;;;;;;;16.70;9.53;;;9.90;96.30;;;;;;5041888;28;20477;-78
2022/03/17 05:28:11;;;;;;;15.83;9.37;;;9.70;96.30;;;;;;5055739;28;20025;-77
2022/03/17 05:30:38;;;;;;;15.27;8.90;;;9.80;96.40;;;;;;5036597;28;20030;-77
2022/03/17 05:33:04;;;;;;;17.37;8.53;;;9.70;96.40;;;;;;5035173;28;20044;-80
2022/03/17 05:35:30;;;;;;;12.93;5.80;;;9.80;96.40;;;;;;5035234;28;20060;-80
2022/03/17 05:37:57;;;;;;;10.27;4.17;;;9.60;95.50;;;;;;5035604;28;20049;-78
2022/03/17 05:40:23;;;;;;;15.93;5.87;;;9.60;95.10;;;;;;5035368;28;20072;-77
2022/03/17 05:42:52;;;;;;;15.23;5.37;;;9.50;95.00;;;;;;5035302;28;20025;-77
2022/03/17 05:45:18;;;;;;;12.43;4.77;;;9.50;95.10;;;;;;5036436;28;20102;-81
2022/03/17 05:47:49;;;;;;;17.53;4.97;;;9.50;95.00;;;;;;5051847;28;20049;-78
2022/03/17 05:50:18;;;;;;;14.10;4.70;;;9.50;95.00;;;;;;5035478;28;20017;-77
2022/03/17 05:52:44;;;;;;;17.07;4.53;;;9.50;95.00;;;;;;5036377;28;20029;-77
2022/03/17 05:55:16;;;;;;;20.43;4.70;;;9.40;95.10;;;;;;5035009;28;20025;-79
2022/03/17 05:57:45;;;;;;;13.83;4.37;;;9.40;95.30;;;;;;5036204;28;20071;-78
2022/03/17 06:00:23;;;;;;;15.67;4.00;;;9.40;95.40;;;;;;5051425;28;20140;-77
2022/03/17 06:02:49;;;;;;;14.47;4.00;;;9.40;95.30;;;;;;5052063;28;20029;-77
2022/03/17 06:05:15;;;;;;;14.13;3.40;;;9.30;95.00;;;;;;5034839;28;20030;-79
2022/03/17 06:07:53;;;;;;;13.13;3.03;;;9.30;94.90;;;;;;5018491;28;20033;-79
2022/03/17 06:10:25;;;;;;;15.93;3.53;;;9.20;95.00;;;;;;5034784;28;20032;-79
2022/03/17 06:12:52;;;;;;;13.37;3.50;;;9.30;94.80;;;;;;5035010;28;20025;-77
2022/03/17 06:15:18;;;;;;;14.27;3.40;;;9.30;94.90;;;;;;5054208;28;20022;-78
2022/03/17 06:18:07;;;;;;;8.70;2.40;;;9.30;95.00;;;;;;5056025;28;20480;-77
2022/03/17 06:20:35;;;;;;;11.90;2.47;;;9.20;94.70;;;;;;5048712;28;20029;-77
2022/03/17 06:23:03;;;;;;;11.90;2.40;;;9.20;94.10;;;;;;5053311;28;20527;-80
2022/03/17 06:25:31;;;;;;;8.80;1.67;;;9.20;94.10;;;;;;5037887;28;20115;-76
2022/03/17 06:27:57;;;;;;;13.10;2.00;;;9.10;94.20;;;;;;5051168;28;20072;-78
2022/03/17 06:30:27;;;;;;;13.23;2.30;;;9.10;94.20;;;;;;5042991;28;20595;-79
2022/03/17 06:32:54;;;;;;;14.50;2.33;;;9.20;94.30;;;;;;5048903;28;20030;-76
2022/03/17 06:35:22;;;;;;;10.83;2.73;;;9.20;94.50;;;;;;5034548;28;20393;-78
2022/03/17 06:37:52;;;;;;;11.83;2.00;;;9.20;94.60;;;;;;5033997;28;20017;-78
2022/03/17 06:40:18;;;;;;;10.53;2.23;;;9.10;94.50;;;;;;5034297;28;20045;-74
2022/03/17 06:42:45;;;;;;;17.77;2.30;;;9.10;94.50;;;;;;5032533;28;20048;-77
2022/03/17 06:45:12;;;;;;;8.67;1.90;;;9.00;94.50;;;;;;5017716;28;20056;-78
2022/03/17 06:47:39;;;;;;;10.07;1.70;;;9.10;94.50;;;;;;5048976;28;20819;-77
2022/03/17 06:50:06;;;;;;;8.83;2.40;;;9.10;94.40;;;;;;5045646;28;20098;-76
2022/03/17 06:52:31;;;;;;;10.40;2.40;;;9.10;94.40;;;;;;5053519;28;20087;-76
2022/03/17 06:54:57;;;;;;;10.87;1.93;;;9.20;94.40;;;;;;5049226;28;20026;-76
2022/03/17 06:57:23;;;;;;;9.80;1.43;;;9.10;94.30;;;;;;5027256;28;20044;-77
2022/03/17 06:59:50;;;;;;;10.00;1.53;;;9.10;94.60;;;;;;5039792;28;20483;-78
2022/03/17 07:02:17;;;;;;;11.60;1.73;;;9.20;94.70;;;;;;5054897;28;20032;-77
2022/03/17 07:04:43;;;;;;;14.03;2.30;;;9.10;94.30;;;;;;5055168;28;20088;-77
2022/03/17 07:07:09;;;;;;;12.50;2.20;;;9.10;94.40;;;;;;5051813;28;20028;-77
2022/03/17 07:09:36;;;;;;;9.03;1.60;;;9.20;94.40;;;;;;5017052;28;20391;-78
2022/03/17 07:12:02;;;;;;;10.37;2.03;;;9.20;94.80;;;;;;5040058;28;20116;-84
2022/03/17 07:14:28;;;;;;;13.77;2.33;;;9.20;94.60;;;;;;5041968;28;20500;-88
2022/03/17 07:16:53;;;;;;;16.23;2.07;;;9.10;94.80;;;;;;5037249;28;20021;-83
2022/03/17 07:19:19;;;;;;;11.00;1.60;;;9.20;94.60;;;;;;5020889;28;20357;-82
2022/03/17 07:21:45;;;;;;;10.27;1.47;;;9.10;94.50;;;;;;5036722;28;20362;-85
2022/03/17 07:24:10;;;;;;;14.13;2.83;;;9.20;94.70;;;;;;5053026;28;20040;-85
2022/03/17 07:26:37;;;;;;;16.60;2.27;;;9.20;94.80;;;;;;5036265;28;20075;-82
2022/03/17 07:29:03;;;;;;;17.70;2.40;;;9.20;94.80;;;;;;5054225;28;20029;-82
2022/03/17 07:31:30;;;;;;;13.03;3.90;;;9.10;94.20;;;;;;5054290;28;20029;-84
2022/03/17 07:33:56;;;;;;;13.57;2.87;;;9.10;94.10;;;;;;5054104;28;20166;-82
2022/03/17 07:36:22;;;;;;;12.17;2.30;;;9.10;94.00;;;;;;5052753;28;20056;-82
2022/03/17 07:38:48;;;;;;;11.50;2.07;;;9.10;93.60;;;;;;5052907;28;20473;-82
2022/03/17 07:41:15;;;;;;;8.43;1.60;;;9.00;93.60;;;;;;5054023;28;20056;-81
2022/03/17 07:43:41;;;;;;;8.37;1.40;;;9.10;92.80;;;;;;5054030;28;20025;-81
2022/03/17 07:46:07;;;;;;;10.47;1.53;;;9.10;93.20;;;;;;5054382;28;20032;-81
2022/03/17 07:48:33;;;;;;;13.10;1.70;;;9.20;93.10;;;;;;5036327;28;20048;-83
2022/03/17 07:50:59;;;;;;;12.27;1.57;;;9.10;92.40;;;;;;5053912;28;20029;-80
2022/03/17 07:53:24;;;;;;;16.37;1.50;;;9.30;92.20;;;;;;5036130;28;20517;-79
2022/03/17 07:55:54;;;;;;;10.60;1.07;;;9.10;92.30;;;;;;5052651;28;20067;-81
2022/03/17 07:58:24;;;;;;;11.67;1.37;;;9.10;92.00;;;;;;5021078;28;20087;-79
2022/03/17 08:00:52;;;;;;;10.27;1.43;;;9.10;91.80;;;;;;5052677;28;20382;-81
2022/03/17 08:03:18;;;;;;;9.13;1.03;;;9.10;91.80;;;;;;5053865;28;20033;-81
2022/03/17 08:05:46;;;;;;;16.63;1.70;;;9.00;92.10;;;;;;5036057;28;20033;-84
2022/03/17 08:08:13;;;;;;;14.47;1.83;;;9.00;91.90;;;;;;5019986;28;20029;-84
2022/03/17 08:10:38;;;;;;;16.20;1.67;;;9.00;92.10;;;;;;5052910;28;20029;-82
2022/03/17 08:13:06;;;;;;;8.83;1.60;;;9.00;92.20;;;;;;5035759;28;20036;-84
2022/03/17 08:15:31;;;;;;;13.17;1.60;;;9.00;92.50;;;;;;5052614;28;20081;-86
2022/03/17 08:17:57;;;;;;;15.57;2.10;;;9.00;92.50;;;;;;5019476;28;20029;-85
2022/03/17 08:20:23;;;;;;;12.23;2.47;;;9.00;92.50;;;;;;5052576;28;20025;-86
2022/03/17 08:22:50;;;;;;;15.57;1.63;;;9.00;92.40;;;;;;5052406;28;20102;-81
2022/03/17 08:25:17;;;;;;;10.80;1.30;;;9.10;92.40;;;;;;5019614;28;20029;-87
2022/03/17 08:27:43;;;;;;;10.07;1.33;;;9.00;92.00;;;;;;5052523;28;20064;-83
2022/03/17 08:30:10;;;;;;;7.40;1.10;;;9.10;91.60;;;;;;5036532;28;20053;-80
2022/03/17 08:32:36;;;;;;;10.00;1.13;;;9.10;91.30;;;;;;5019627;28;20111;-85
2022/03/17 08:35:01;;;;;;;9.00;1.30;;;9.10;91.00;;;;;;5035712;28;20478;-81
2022/03/17 08:37:27;;;;;;;9.83;1.40;;;9.20;91.00;;;;;;5052175;28;20082;-84
2022/03/17 08:39:53;;;;;;;12.10;1.77;;;9.20;90.30;;;;;;5019219;28;20457;-83
2022/03/17 08:42:18;;;;;;;10.30;1.87;;;9.20;90.30;;;;;;5019176;28;20033;-87
2022/03/17 08:44:44;;;;;;;10.47;1.60;;;9.30;89.30;;;;;;5051830;28;20036;-86
2022/03/17 08:49:54;;;;;;;8.82;0.90;;;9.40;86.40;;;;;;5038836;28;20116;-84
2022/03/17 08:52:19;;;;;;;9.03;1.03;;;9.60;85.60;;;;;;5052133;28;20060;-83
2022/03/17 08:54:46;;;;;;;9.10;1.23;;;9.70;85.60;;;;;;5019083;28;20500;-84
2022/03/17 08:57:12;;;;;;;10.40;1.17;;;9.60;85.00;;;;;;5035584;28;20036;-80
2022/03/17 08:59:39;;;;;;;8.73;0.90;;;9.70;85.00;;;;;;5052126;28;20703;-87
2022/03/17 09:02:11;;;;;;;5.03;0.70;;;9.70;84.40;;;;;;5051788;28;20151;-84
2022/03/17 09:04:37;;;;;;;9.07;1.60;;;9.70;84.10;;;;;;5019921;28;20179;-87
2022/03/17 09:07:03;;;;;;;15.30;1.93;;;9.80;83.10;;;;;;5035650;28;20485;-83
2022/03/17 09:09:34;;;;;;;6.93;1.00;;;9.80;83.10;;;;;;5052538;28;20396;-81
2022/03/17 09:12:05;;;;;;;8.87;0.90;;;9.70;83.00;;;;;;5035744;28;20495;-82
2022/03/17 09:14:31;;;;;;;6.60;0.77;;;9.80;83.60;;;;;;5051970;28;20033;-82
2022/03/17 09:16:57;;;;;;;11.33;1.03;;;9.80;83.90;;;;;;5035668;28;20473;-83
2022/03/17 09:19:22;;;;;;;15.67;1.27;;;9.90;83.30;;;;;;5018656;28;20032;-83
2022/03/17 09:21:48;;;;;;;6.37;1.07;;;9.90;83.30;;;;;;5018951;28;20028;-82
2022/03/17 09:24:14;;;;;;;9.50;1.00;;;10.00;83.40;;;;;;5034979;28;20036;-87
2022/03/17 09:26:39;;;;;;;12.33;1.70;;;10.00;83.10;;;;;;5053075;28;20029;-86
2022/03/17 09:29:05;;;;;;;9.20;1.30;;;10.10;82.30;;;;;;5035214;28;20025;-82
2022/03/17 09:31:31;;;;;;;8.40;0.97;;;10.10;82.10;;;;;;5035078;28;20025;-82
2022/03/17 09:33:57;;;;;;;13.07;0.90;;;10.10;81.90;;;;;;5035125;28;20029;-86
2022/03/17 09:36:23;;;;;;;8.43;1.10;;;10.10;81.50;;;;;;5051463;28;20033;-82
2022/03/17 09:39:42;;;;;;;12.17;1.97;;;10.10;81.40;;;;;;5051609;28;20036;-81
2022/03/17 09:41:35;;;;;;;13.67;1.80;;;10.20;81.20;;;;;;5052664;28;20500;-83
2022/03/17 09:44:02;;;;;;;10.90;1.43;;;10.20;80.50;;;;;;5034896;28;20033;-85
2022/03/17 09:46:28;;;;;;;8.40;1.43;;;10.10;80.80;;;;;;5051400;28;20044;-80
2022/03/17 09:48:55;;;;;;;13.47;1.20;;;10.20;81.00;;;;;;5051273;28;20469;-85
2022/03/17 09:51:26;;;;;;;13.80;1.37;;;10.20;80.90;;;;;;5034774;28;20044;-82
2022/03/17 09:53:54;;;;;;;9.37;1.10;;;10.20;81.00;;;;;;5051215;28;20017;-81
2022/03/17 09:56:23;;;;;;;15.10;1.40;;;10.30;81.10;;;;;;5051331;28;20108;-81
2022/03/17 09:58:53;;;;;;;7.23;1.70;;;10.30;80.40;;;;;;5054819;28;20390;-81
2022/03/17 10:01:20;;;;;;;9.77;1.17;;;10.40;80.60;;;;;;5054613;28;20052;-84
2022/03/17 10:03:46;;;;;;;13.17;1.70;;;10.40;80.30;;;;;;5038260;28;20036;-79
2022/03/17 10:06:14;;;;;;;9.10;1.10;;;10.40;79.70;;;;;;5054648;28;20037;-80
2022/03/17 10:08:45;;;;;;;9.60;1.37;;;10.50;79.30;;;;;;5038458;28;20067;-78
2022/03/17 10:11:26;;;;;;;8.40;1.20;;;10.50;79.60;;;;;;5022173;28;20080;-81
2022/03/17 10:13:54;;;;;;;7.87;1.40;;;10.50;78.90;;;;;;5054497;28;20028;-78
2022/03/17 10:16:21;;;;;;;8.27;1.37;;;10.50;78.80;;;;;;5021991;28;20025;-79
2022/03/17 10:18:59;;;;;;;9.40;1.40;;;10.60;79.00;;;;;;5055132;28;20025;-80
2022/03/17 10:21:27;;;;;;;11.20;1.63;;;10.60;78.80;;;;;;5055732;28;20071;-77
2022/03/17 10:24:02;;;;;;;9.37;2.40;;;10.60;78.60;;;;;;5020926;28;20029;-80
2022/03/17 10:26:49;;;;;;;7.50;1.17;;;10.70;78.80;;;;;;5054328;28;20035;-79
2022/03/17 10:29:17;;;;;;;8.80;1.20;;;10.60;78.10;;;;;;5037888;28;20053;-80
2022/03/17 10:32:06;;;;;;;7.13;1.10;;;10.80;78.10;;;;;;5054255;28;20466;-77
2022/03/17 10:34:55;;;;;;;4.63;0.90;;;10.90;77.40;;;;;;5037575;28;20033;-80
2022/03/17 10:37:23;;;;;;;6.75;1.02;;;11.00;76.40;;;;;;5054147;28;20504;-79
2022/03/17 10:39:54;;;;;;;5.68;0.95;;;11.20;75.90;;;;;;5054145;28;20052;-80
2022/03/17 10:42:27;;;;;;;10.77;1.30;;;11.20;75.30;;;;;;5054083;28;20025;-78
2022/03/17 10:44:55;;;;;;;6.10;1.00;;;11.20;74.80;;;;;;5054130;28;20409;-84
2022/03/17 10:47:30;;;;;;;11.70;1.15;;;11.30;74.20;;;;;;5054008;28;20025;-81
2022/03/17 10:50:07;;;;;;;8.10;1.52;;;11.30;74.30;;;;;;5037507;28;20108;-83
2022/03/17 10:52:49;;;;;;;10.48;1.45;;;11.40;74.20;;;;;;5055142;28;20405;-81
2022/03/17 10:55:18;;;;;;;11.70;1.80;;;11.60;74.30;;;;;;5056100;28;20020;-82
2022/03/17 10:57:44;;;;;;;8.68;1.17;;;11.60;74.10;;;;;;5054699;28;20018;-87
2022/03/17 11:00:24;;;;;;;9.70;1.70;;;11.60;73.90;;;;;;5037264;28;20504;-80
2022/03/17 11:02:53;;;;;;;13.07;1.20;;;11.70;74.10;;;;;;5050831;28;20083;-84
2022/03/17 11:05:20;;;;;;;8.52;1.48;;;11.80;73.80;;;;;;5034083;28;20334;-81
2022/03/17 11:07:46;;;;;;;7.15;1.50;;;11.90;73.80;;;;;;5033842;28;20100;-82
2022/03/17 11:10:15;;;;;;;12.18;2.15;;;12.10;73.40;;;;;;5034693;28;20396;-81
2022/03/17 11:12:43;;;;;;;9.27;2.25;;;12.10;72.70;;;;;;5018637;28;20508;-83
2022/03/17 11:15:09;;;;;;;8.15;1.67;;;12.30;72.00;;;;;;5017561;28;20029;-79
2022/03/17 11:17:44;;;;;;;8.43;1.35;;;12.20;71.90;;;;;;5033456;28;20021;-83
2022/03/17 11:20:12;;;;;;;8.05;1.58;;;12.30;72.90;;;;;;5033475;28;20354;-82
2022/03/17 11:22:39;;;;;;;9.77;1.10;;;12.40;72.30;;;;;;5033918;28;20021;-82
2022/03/17 11:25:24;;;;;;;9.88;1.02;;;12.50;71.30;;;;;;5017174;28;20030;-82
2022/03/17 11:27:57;;;;;;;7.18;1.30;;;12.60;71.00;;;;;;5033705;28;20021;-81
2022/03/17 11:30:29;;;;;;;5.93;0.70;;;12.70;70.60;;;;;;5033405;28;20071;-85
2022/03/17 11:32:58;;;;;;;6.07;1.10;;;12.80;70.60;;;;;;5034661;28;20100;-80
2022/03/17 11:35:32;;;;;;;4.07;0.80;;;12.90;70.20;;;;;;5034388;28;20048;-80
2022/03/17 11:38:14;;;;;;;4.85;0.93;;;13.20;70.00;;;;;;5016946;28;20033;-88
2022/03/17 11:41:20;;;;;;;8.93;1.33;;;13.20;68.30;;;;;;5034318;28;20017;-82
2022/03/17 11:43:46;;;;;;;7.15;1.17;;;13.30;67.80;;;;;;5032929;28;20029;-84
2022/03/17 11:46:25;;;;;;;9.52;1.67;;;13.40;67.70;;;;;;5032965;28;20029;-82
2022/03/17 11:48:54;;;;;;;5.07;1.42;;;13.60;66.00;;;;;;5033107;28;20034;-84
2022/03/17 11:51:21;;;;;;;5.95;1.00;;;13.70;64.70;;;;;;5032989;28;20026;-81
2022/03/17 11:53:49;;;;;;;7.60;1.63;;;13.80;63.60;;;;;;5032888;28;20447;-88
2022/03/17 11:56:38;;;;;;;4.72;0.80;;;13.90;63.00;;;;;;5032774;28;20034;-81
2022/03/17 11:59:07;;;;;;;6.03;1.30;;;14.00;62.80;;;;;;5033943;28;20374;-82
2022/03/17 12:01:39;;;;;;;6.70;1.00;;;14.10;62.40;;;;;;5032481;28;20038;-81
2022/03/17 12:04:07;;;;;;;9.55;1.05;;;14.20;61.20;;;;;;5033998;28;20504;-83
2022/03/17 12:06:38;;;;;;;5.38;0.80;;;14.30;61.30;;;;;;5016294;28;20079;-80
2022/03/17 12:09:09;;;;;;;3.92;0.70;;;14.40;60.80;;;;;;5033831;28;20029;-84
2022/03/17 12:11:38;;;;;;;4.82;0.90;;;14.50;60.50;;;;;;5034146;28;20040;-83
2022/03/17 12:14:17;;;;;;;6.38;0.90;;;14.50;59.50;;;;;;5032455;28;20071;-82
2022/03/17 12:16:51;;;;;;;6.03;1.02;;;14.50;58.80;;;;;;5033385;28;20076;-81
2022/03/17 12:19:35;;;;;;;8.80;1.20;;;14.50;59.10;;;;;;5031940;28;20036;-84
2022/03/17 12:22:00;;;;;;;4.07;1.10;;;14.70;58.70;;;;;;5033829;28;20096;-86
2022/03/17 12:24:33;;;;;;;7.38;1.05;;;14.80;57.50;;;;;;5033748;28;20060;-86
2022/03/17 12:27:12;;;;;;;5.35;0.80;;;14.90;56.50;;;;;;5032159;28;20036;-79
2022/03/17 12:29:39;;;;;;;5.53;0.93;;;15.10;56.60;;;;;;5032223;28;20030;-82
2022/03/17 12:32:07;;;;;;;3.58;0.57;;;15.40;55.90;;;;;;5031927;28;20025;-81
2022/03/17 12:34:35;;;;;;;2.90;0.65;;;15.70;56.20;;;;;;5015996;28;20120;-81
2022/03/17 12:37:02;;;;;;;4.85;0.70;;;16.40;55.60;;;;;;5032115;28;20024;-85
2022/03/17 12:39:29;;;;;;;2.67;0.60;;;16.80;55.20;;;;;;5032145;28;20028;-80
2022/03/17 12:41:56;;;;;;;7.72;0.75;;;17.40;53.40;;;;;;5032188;28;20029;-82
2022/03/17 12:44:24;;;;;;;4.40;0.80;;;17.80;51.90;;;;;;5033886;28;20036;-80
2022/03/17 12:46:51;;;;;;;4.43;0.88;;;18.40;51.00;;;;;;5032264;28;20040;-81
2022/03/17 12:49:21;;;;;;;6.30;0.98;;;18.90;49.60;;;;;;5015745;28;20022;-82
2022/03/17 12:51:49;;;;;;;5.93;0.90;;;19.40;49.00;;;;;;5033909;28;20103;-81
2022/03/17 12:54:15;;;;;;;3.88;0.63;;;20.10;47.70;;;;;;5033942;28;20422;-83